ROTAER D-AMDT 39/20 Ver mudanças

Manicoré ( SBMY ) / MANICORÉ, AM 05 49 01S/061 17 02W
AD PUB 3E UTC-4 53 (174)

05 - ( 1265x30 ASPH 12/F/C/Y/U ) - 23

SBAZ (CINDACTA 4)
CMB- [1] TF
MET -

[2]

RMK -

INFORMAÇÃO ADICIONAL
  1. OBS concentração de pássaros (urubus) na perna do vento da RWY 05 e nas proximidades das laterais da RWY 05/23
COMPL -
  • [1] HJ. Somente para ACFT ETA 7 e 7º/8º GAV, demais ACFT FAB, somente com autorização da ALA 8.
  • [2] ERAA (estação de radiodifusão automática de aeródromo) FREQ 132.600MHZ HR SER MON TIL FRI 0000-1215 1600-1715 2045-2359 SAT SUN HOL SER H24
TEMP (1)
INFOTEMP 0060R/22
AD PRB OPS DE LDG POR DETERMINACAO DA ANAC

Duração: 30/03/22 00:00 a 30/03/23 23:59 UTC | Divulgação: 13/01/2022 12:13


Suplementos AIP (0)

NOTAM (0)

Nascer/Por do Sol

10:03

22:28


METAR

TAF

191613Z 1918/2006 08005KT 9999 SCT030 FEW040TCU TX30/1918Z TN24/2006Z PROB40 1918/1922 4000 TSRA BKN015 FEW030CB RMK PHQ=


Cartas (0)


Rotas Preferenciais (0)